<?xml version='1.0' encoding='UTF-8'?>
<gpx xmlns="http://www.topografix.com/GPX/1/1" creator="www.balnam.be" version="1.1" xmlns:xsi="http://www.w3.org/2001/XMLSchema-instance" xsi:schemaLocation="http://www.topografix.com/GPX/1/1 http://www.topografix.com/GPX/1/1/gpx.xsd">
<trk>
<name>hecee116</name>
<cmt>d</cmt>
<desc>Ecaussinnes-d'Enghien Sentier n°116 </desc>
<link href="https://chemins.be/ecaussinnesdenghien/sentier/116"/><trkseg>
<trkpt lat="50.553412" lon="4.163809"><time>2026-05-02T22:52:10Z</time></trkpt>
<trkpt lat="50.554293" lon="4.164158"><time>2026-05-02T23:02:10Z</time></trkpt>
</trkseg></trk>
<trk>
<name>hecee116</name>
<cmt>v</cmt>
<desc>Ecaussinnes-d'Enghien Sentier n°116 </desc>
<link href="https://chemins.be/ecaussinnesdenghien/sentier/116"/><trkseg>
<trkpt lat="50.554293" lon="4.164158"><time>2026-05-02T23:02:10Z</time></trkpt>
<trkpt lat="50.554771" lon="4.164622"><time>2026-05-02T23:12:10Z</time></trkpt>
<trkpt lat="50.555203" lon="4.165255"><time>2026-05-02T23:22:10Z</time></trkpt>
</trkseg></trk>
<trk>
<name>hecee116</name>
<cmt>r</cmt>
<desc>Ecaussinnes-d'Enghien Sentier n°116 </desc>
<link href="https://chemins.be/ecaussinnesdenghien/sentier/116"/><trkseg>
<trkpt lat="50.555203" lon="4.165255"><time>2026-05-02T23:22:10Z</time></trkpt>
<trkpt lat="50.554808" lon="4.165652"><time>2026-05-02T23:32:10Z</time></trkpt>
</trkseg></trk>
<trk>
<name>hecee116</name>
<cmt>v</cmt>
<desc>Ecaussinnes-d'Enghien Sentier n°116 </desc>
<link href="https://chemins.be/ecaussinnesdenghien/sentier/116"/><trkseg>
<trkpt lat="50.554808" lon="4.165652"><time>2026-05-02T23:32:10Z</time></trkpt>
<trkpt lat="50.555277" lon="4.166468"><time>2026-05-02T23:42:10Z</time></trkpt>
<trkpt lat="50.555575" lon="4.166932"><time>2026-05-02T23:52:10Z</time></trkpt>
<trkpt lat="50.555342" lon="4.167568"><time>2026-05-03T00:02:10Z</time></trkpt>
<trkpt lat="50.555674" lon="4.168623"><time>2026-05-03T00:12:10Z</time></trkpt>
</trkseg></trk>
<trk>
<name>hecee116</name>
<cmt>q</cmt>
<desc>Ecaussinnes-d'Enghien Sentier n°116 </desc>
<link href="https://chemins.be/ecaussinnesdenghien/sentier/116"/><trkseg>
<trkpt lat="50.555674" lon="4.168623"><time>2026-05-03T00:12:10Z</time></trkpt>
<trkpt lat="50.556046" lon="4.168906"><time>2026-05-03T00:22:10Z</time></trkpt>
<trkpt lat="50.556306" lon="4.168665"><time>2026-05-03T00:32:10Z</time></trkpt>
<trkpt lat="50.557595" lon="4.170664"><time>2026-05-03T00:42:10Z</time></trkpt>
<trkpt lat="50.557927" lon="4.170182"><time>2026-05-03T00:52:10Z</time></trkpt>
</trkseg></trk>
<trk>
<name>hecee116</name>
<cmt>v</cmt>
<desc>Ecaussinnes-d'Enghien Sentier n°116 </desc>
<link href="https://chemins.be/ecaussinnesdenghien/sentier/116"/><trkseg>
<trkpt lat="50.557927" lon="4.170182"><time>2026-05-03T00:52:10Z</time></trkpt>
<trkpt lat="50.558773" lon="4.170983"><time>2026-05-03T01:02:10Z</time></trkpt>
<trkpt lat="50.558622" lon="4.171718"><time>2026-05-03T01:12:10Z</time></trkpt>
<trkpt lat="50.559127" lon="4.173028"><time>2026-05-03T01:22:10Z</time></trkpt>
<trkpt lat="50.560100" lon="4.173913"><time>2026-05-03T01:32:10Z</time></trkpt>
<trkpt lat="50.560413" lon="4.172910"><time>2026-05-03T01:42:10Z</time></trkpt>
<trkpt lat="50.561051" lon="4.173049"><time>2026-05-03T01:52:10Z</time></trkpt>
</trkseg></trk>
<trk>
<name>hecee116</name>
<cmt>q</cmt>
<desc>Ecaussinnes-d'Enghien Sentier n°116 </desc>
<link href="https://chemins.be/ecaussinnesdenghien/sentier/116"/><trkseg>
<trkpt lat="50.561051" lon="4.173049"><time>2026-05-03T01:52:10Z</time></trkpt>
<trkpt lat="50.563788" lon="4.175366"><time>2026-05-03T02:02:10Z</time></trkpt>
</trkseg>
</trk>
</gpx>